# Land Stadt Wetter Temperatur Luftdruck Luftfeuchtigkeit Sichtweite Windgeschwindigkeit Windrichtung Ortszeit
1 et Addis Abeba Clouds 15 1027 62 10000 15 80 02.08.2018 14:23
2 tr Alanya Haze 22 1020 73 5000 19 343 02.08.2018 14:22
3 au Alice Springs Clear 13 1018 32 10000 8 330 02.08.2018 14:21
4 ru Amderma Clouds 0 1022 69 0 10 300 02.08.2018 14:23
5 ru Anadyr Clear -5 994 85 10000 18 360 02.08.2018 14:23
6 ch Andermatt Clouds 13 1017 81 0 5 90 02.08.2018 14:23
7 ad Andorra la Vella Clouds 13 1019 43 0 1 230 02.08.2018 14:22
8 tr Ankara Clouds 14 1021 54 10000 5 310 02.08.2018 14:23
9 mg Antananarivo Clouds 17 1024 82 10000 21 120 02.08.2018 14:21
10 gr Athen Clouds 20 1017 83 10000 6 150 02.08.2018 14:22
11 ck Avarua Rain 24 1017 78 10000 21 80 02.08.2018 14:22
12 iq Bagdad Rain 28 1016 42 9000 4 0 02.08.2018 14:22
13 th Bangkok Clouds 29 1012 78 10000 4 50 02.08.2018 14:21
14 es Barcelona Clouds 20 1015 77 10000 15 230 02.08.2018 14:22
15 de Berlin Rain 16 1013 72 10000 9 180 02.08.2018 14:21
16 ch Bern Rain 13 1017 93 10000 4 0 02.08.2018 14:23
17 fr Bordeaux Clouds 17 1014 88 10000 9 310 02.08.2018 14:21
18 de Braunschweig Rain 15 1011 87 10000 4 110 02.08.2018 14:21
19 de Bremen Clear 13 1010 93 10000 8 130 02.08.2018 14:22
20 ar Buenos Aires Drizzle 18 1013 93 5000 18 350 02.08.2018 14:22
21 ma Casablanca Clear 19 1019 68 10000 18 20 02.08.2018 14:23
22 us Chicago Clouds 11 1017 62 16093 7 355 02.08.2018 14:23
23 pe Cusco Clouds 16 1030 42 10000 5 0 02.08.2018 14:23
24 au Darwin Clear 23 1011 88 10000 4 50 02.08.2018 14:22
25 us Death Valley Clouds 22 1001 22 0 8 92 02.08.2018 14:22
26 us Denver Clear 24 1011 12 16093 7 153 02.08.2018 14:21
27 qa Doha Mist 31 1014 66 10000 4 10 02.08.2018 14:23
28 de Dresden Clear 12 1014 71 10000 13 170 02.08.2018 14:22
29 ae Dubai Clouds 29 1013 74 7000 13 330 02.08.2018 14:21
30 ie Dublin Clouds 8 994 87 10000 15 180 02.08.2018 14:21
31 de Emden Clouds 13 1009 82 10000 9 140 02.08.2018 14:21
32 ar Esquel Clouds 14 1022 44 10000 17 280 02.08.2018 14:22
33 us Fairbanks Clouds -4 989 68 11265 13 30 02.08.2018 14:23
34 de Flensburg Clouds 11 1009 100 10000 13 200 02.08.2018 14:21
35 de Frankfurt Rain 14 1013 100 9000 13 180 02.08.2018 14:22
36 de Freiburg Rain 14 1014 87 10000 18 180 02.08.2018 14:22
37 gb Glasgow Clouds 10 996 93 10000 13 90 02.08.2018 14:21
38 de Hamburg Clouds 13 1010 93 10000 2 0 02.08.2018 14:21
39 no Hammerfest Clear 0 1009 74 10000 22 210 02.08.2018 14:22
40 de Hannover Rain 14 1011 93 10000 4 140 02.08.2018 14:21
41 vn Hanoi Clouds 24 1017 88 9000 17 50 02.08.2018 14:21
42 de Helgoland Clouds 13 1009 87 10000 9 150 02.08.2018 14:22
43 fi Helsinki Rain 5 1010 93 10000 17 50 02.08.2018 14:21
44 de Hiddensee Clouds 14 1015 87 0 2 180 02.08.2018 14:21
45 sb Honiara Clouds 22 1011 100 10000 24 143 02.08.2018 14:22
46 us Honolulu Clouds 28 1018 65 16093 11 70 02.08.2018 14:22
47 at Innsbruck Clear 11 1016 76 10000 5 0 02.08.2018 14:23
48 tr Istanbul Clouds 19 1019 82 10000 9 30 02.08.2018 14:23
49 in Jagatsukh Clear -3 1022 87 0 4 104 02.08.2018 14:22
50 id Jakarta Mist 26 1009 94 4500 13 230 02.08.2018 14:22
51 ru Jakutsk Clouds -2 1010 100 10000 11 330 02.08.2018 14:22
52 af Kabul Clouds 14 1024 50 10000 13 150 02.08.2018 14:21
53 eg Kairo Clear 28 1018 48 6000 13 360 02.08.2018 14:22
54 za Kapstadt Clear 18 1022 83 0 8 187 02.08.2018 14:22
55 de Kassel Drizzle 14 1012 93 10000 17 160 02.08.2018 14:21
56 ua Kiew Mist 12 1019 93 4500 6 277 02.08.2018 14:21
57 cd Kisangani Clouds 22 1010 81 0 1 100 02.08.2018 14:23
58 de Köln Drizzle 14 1010 93 10000 15 150 02.08.2018 14:21
59 bo La Paz Clouds 11 1037 71 10000 13 80 02.08.2018 14:22
60 es Las Palmas de Gran Canaria Clouds 21 1020 56 10000 24 10 02.08.2018 14:21
61 us Las Vegas Clouds 26 1005 19 16093 17 190 02.08.2018 14:21
62 cn Lhasa Clouds 2 1023 49 0 6 29 02.08.2018 14:22
63 pt Lissabon Clouds 20 1018 94 10000 21 220 02.08.2018 14:22
64 gb London Rain 11 1004 87 10000 15 0 02.08.2018 14:22
65 us Los Angeles Haze 22 1010 56 16093 8 0 02.08.2018 14:22
66 es Madrid Clouds 15 1019 87 10000 13 240 02.08.2018 14:23
67 de Magdeburg Clouds 14 1012 84 0 5 179 02.08.2018 14:22
68 it Mailand -273 0 0 0 0 0 02.08.2018 14:21
69 mv Male Clouds 28 1011 76 0 17 137 02.08.2018 14:23
70 br Manaus Clouds 30 1010 66 10000 8 190 02.08.2018 14:21
71 gb Manchester Rain 11 999 87 10000 5 0 02.08.2018 14:21
72 ph Manila Clouds 27 1010 83 10000 12 32 02.08.2018 14:21
73 ma Marrakesch Clear 25 1018 36 10000 11 40 02.08.2018 14:23
74 mx Mexiko Stadt Rain 17 1024 82 4828 15 10 02.08.2018 14:21
75 us Miami Rain 32 1013 59 16093 15 270 02.08.2018 14:23
76 uy Montevideo Rain 16 1014 93 10000 11 80 02.08.2018 14:22
77 ca Montreal Rain 7 987 87 11265 35 360 02.08.2018 14:22
78 ru Moskau Clouds 14 1012 67 10000 18 250 02.08.2018 14:22
79 in Mumbai Haze 30 1010 66 3000 5 110 02.08.2018 14:22
80 de München Clouds 11 1015 81 10000 4 250 02.08.2018 14:21
81 jp Nagasaki Clouds 17 1020 100 0 15 57 02.08.2018 14:21
82 in Nagpur Haze 23 1015 83 2500 6 51 02.08.2018 14:21
83 ke Nairobi Clouds 16 1021 88 10000 13 210 02.08.2018 14:22
84 bs Nassau Clouds 29 1013 74 10000 15 290 02.08.2018 14:22
85 us New York Clouds 14 994 54 0 26 270 02.08.2018 14:22
86 fr Nizza Clouds 16 1018 77 10000 5 260 02.08.2018 14:22
87 us Nome Clouds -6 990 85 16093 4 4 02.08.2018 14:23
88 de Nürnberg Clear 13 1014 76 10000 9 100 02.08.2018 14:21
89 gl Nuuk -273 0 0 0 0 0 02.08.2018 14:22
90 de Oberstdorf Clear 12 1016 58 10000 4 0 02.08.2018 14:21
91 no Oslo Rain 7 1008 93 6000 8 20 02.08.2018 14:23
92 it Palermo Clear 17 1019 72 10000 17 70 02.08.2018 14:22
93 es Palma de Mallorca Clear 21 1018 73 10000 8 220 02.08.2018 14:22
94 fr Paris Drizzle 14 1010 93 10000 15 180 02.08.2018 14:22
95 cn Peking Mist 11 1024 93 5000 4 0 02.08.2018 14:23
96 au Perth Clear 12 1019 93 10000 15 160 02.08.2018 14:21
97 pg Port Moresby Fog 21 1011 100 10000 4 0 02.08.2018 14:21
98 bo Potisi Clouds 14 1009 29 0 10 288 02.08.2018 14:22
99 is Reykjavik Clear 4 1010 63 10000 11 360 02.08.2018 14:22
100 sa Riad Clear 28 1019 26 10000 4 160 02.08.2018 14:21
101 br Rio de Janeiro Clouds 28 1015 78 10000 24 160 02.08.2018 14:22
102 it Rom Clear 15 1019 72 10000 9 120 02.08.2018 14:23
103 fi Rovaniemi Clouds -1 1015 86 10000 8 160 02.08.2018 14:21
104 ec San Cristobal Rain 22 1014 83 10000 22 200 02.08.2018 14:22
105 cl Santiago Clouds 22 1020 34 7000 11 250 02.08.2018 14:23
106 do Santo Domingo Clouds 32 1012 59 10000 13 190 02.08.2018 14:21
107 kr Seoul Mist 10 1025 106 10000 4 10 02.08.2018 14:21
108 es Sevilla Clear 22 1018 53 10000 15 220 02.08.2018 14:22
109 cn Shanghai -273 0 0 0 0 0 02.08.2018 14:21
110 bg Sofia Clear 13 1019 51 10000 8 120 02.08.2018 14:21
111 se Stockholm Mist 8 1010 93 8000 2 360 02.08.2018 14:23
112 de Stuttgart Rain 14 1015 87 10000 4 0 02.08.2018 14:22
113 ru Surgut Clouds -3 1015 73 10000 14 330 02.08.2018 14:23
114 fj Suva Rain 19 1014 99 0 3 85 02.08.2018 14:21
115 au Sydney Clear 11 1015 53 10000 13 330 02.08.2018 14:22
116 es Tarifa Clear 21 1018 64 10000 18 250 02.08.2018 14:21
117 jp Tokio Rain 16 1026 82 10000 28 360 02.08.2018 14:22
118 de Torfhaus Clear 15 1011 82 10000 9 110 02.08.2018 14:22
119 de Trier Rain 13 1012 93 10000 21 180 02.08.2018 14:21
120 us Tucson Clear 31 1009 18 16093 22 188 02.08.2018 14:21
121 mn Ulaanbaatar Clear -8 1014 61 10000 4 0 02.08.2018 14:23
122 mn Uliastai Clouds -1 1010 43 0 7 171 02.08.2018 14:23
123 ar Ushuaia Clouds 9 1003 70 10000 11 360 02.08.2018 14:22
124 mx Veracruz Clouds 28 1012 78 11265 9 50 02.08.2018 14:21
125 bg Warna Clear 13 1018 87 10000 5 20 02.08.2018 14:21
126 nz Wellington Clouds 13 1012 87 10000 31 360 02.08.2018 14:23
127 ru Werchojansk Clouds -8 1011 95 0 6 27 02.08.2018 14:22
128 at Wien Mist 11 1016 82 10000 11 130 02.08.2018 14:22